Kingsville, TX

5:21 PM CST on January 24, 2017 (GMT -0600)
Kingsville Naval Air Station | | Change Station

Elev 49 ft 27.50 °N, 97.82 °W | Updated 1 hour ago

Clear
Clear
90 °F
Feels Like 89 °F
N
21
Wind Variable Wind from South

Today
High -- | Low -- °F
--% Chance of Precip.
Yesterday
High -- | Low -- °F
Precip. -- in
Pressure 29.61 in
Visibility 10.0 miles
Clouds Few 6500 ft
Scattered Clouds 25000 ft
Heat Index 89 °F
Dew Point 58 °F
Humidity 34%
Rainfall 0.00 in
Snow Depth Not available.
7:20 AM 6:06 PM
Waning Crescent, 9% visible
METAR KNQI 242156Z 17018KT 10SM FEW065 SCT250 32/14 A2962 RMK AO2 SLP025 T03220144
Pressure 29.61 in
Visibility 10.0 miles
Clouds Few 6500 ft
Scattered Clouds 25000 ft
Heat Index 89 °F
Dew Point 58 °F
Humidity 34%
Rainfall 0.00 in
Snow Depth Not available.
7:20 AM 6:06 PM
Waning Crescent, 9% visible
METAR KNQI 242156Z 17018KT 10SM FEW065 SCT250 32/14 A2962 RMK AO2 SLP025 T03220144

Get Your Daily Forecast Email!

Thanks for signing up!

Be on the lookout for a verification email in your inbox.

You'll start receiving the daily forecast at 8 AM.

×

10-Day Weather Forecast

Almanac

Astronomy

Jan. 24, 2017 Rise Set
Actual Time
Civil Twilight
Nautical Twilight
Astronomical Twilight
Moon
Length of Visible Light
Length of Day
Tomorrow will be .
, % of the Moon is Illuminated

Today's Extremes

State Highs State Lows

Community

WunderPhotos

Upload Photos

1,962,540 photos uploaded!

WunderBlog® & News

Nearby

Air Quality

  Air Quality AQ Index Pollutant
Not available.

Snow Depth

Station Depth Elevation

Earthquake Activity

City Distance Mag. Time & Date
Minimum magnitude displayed is 2.5.

Coastal Water Temperatures

Place Temperature

Stations

Nearby Weather Stations

Station Location Temp. Windchill Dew Point Humidity Wind Precip. Elev Updated Type
                   

Watches & Warnings

There are currently no watches in effect.